sensor_id;sensor_type;location;lat;lon;timestamp;noise_LAeq;noise_LA_min;noise_LA_max;noise_LA01;noise_LA95
67300;Laerm;57658;51.436;5.980;2022-08-04T00:00:04;32.39;30.82;34.10;;
67300;Laerm;57658;51.436;5.980;2022-08-04T00:00:15;48.53;30.60;66.97;;
67300;Laerm;57658;51.436;5.980;2022-08-04T00:00:26;31.95;30.73;33.31;;
67300;Laerm;57658;51.436;5.980;2022-08-04T00:00:38;31.90;30.03;33.41;;
67300;Laerm;57658;51.436;5.980;2022-08-04T00:00:59;31.88;30.27;35.52;;
67300;Laerm;57658;51.436;5.980;2022-08-04T00:01:14;31.97;30.14;33.21;;
67300;Laerm;57658;51.436;5.980;2022-08-04T00:01:32;32.05;30.41;35.99;;
67300;Laerm;57658;51.436;5.980;2022-08-04T00:01:46;32.10;30.67;37.20;;
67300;Laerm;57658;51.436;5.980;2022-08-04T00:02:02;32.06;30.45;40.61;;
67300;Laerm;57658;51.436;5.980;2022-08-04T00:02:17;31.99;30.53;33.87;;
67300;Laerm;57658;51.436;5.980;2022-08-04T00:02:46;32.01;30.45;35.56;;
67300;Laerm;57658;51.436;5.980;2022-08-04T00:03:12;31.87;30.08;35.08;;
67300;Laerm;57658;51.436;5.980;2022-08-04T00:03:23;31.84;30.09;35.52;;
67300;Laerm;57658;51.436;5.980;2022-08-04T00:03:41;31.64;30.24;33.12;;
67300;Laerm;57658;51.436;5.980;2022-08-04T00:03:54;31.60;30.06;33.19;;
67300;Laerm;57658;51.436;5.980;2022-08-04T00:05:07;31.35;29.99;35.73;;
67300;Laerm;57658;51.436;5.980;2022-08-04T00:05:56;31.76;29.60;45.36;;
67300;Laerm;57658;51.436;5.980;2022-08-04T00:07:18;31.95;30.20;33.46;;
67300;Laerm;57658;51.436;5.980;2022-08-04T00:07:34;31.81;30.06;35.00;;
67300;Laerm;57658;51.436;5.980;2022-08-04T00:07:51;31.63;30.07;36.63;;
67300;Laerm;57658;51.436;5.980;2022-08-04T00:08:11;31.64;30.19;33.87;;
67300;Laerm;57658;51.436;5.980;2022-08-04T00:08:56;32.09;30.41;35.78;;
67300;Laerm;57658;51.436;5.980;2022-08-04T00:09:11;31.80;30.12;34.15;;
67300;Laerm;57658;51.436;5.980;2022-08-04T00:09:26;31.61;30.23;33.18;;
67300;Laerm;57658;51.436;5.980;2022-08-04T00:09:51;31.37;29.96;33.07;;
67300;Laerm;57658;51.436;5.980;2022-08-04T00:10:05;31.57;30.05;36.72;;
67300;Laerm;57658;51.436;5.980;2022-08-04T00:10:16;31.61;30.05;33.39;;
67300;Laerm;57658;51.436;5.980;2022-08-04T00:10:27;31.74;30.31;33.39;;
67300;Laerm;57658;51.436;5.980;2022-08-04T00:10:38;31.71;30.45;33.14;;
67300;Laerm;57658;51.436;5.980;2022-08-04T00:10:49;31.49;30.09;32.75;;
67300;Laerm;57658;51.436;5.980;2022-08-04T00:11:02;31.37;29.94;33.01;;
67300;Laerm;57658;51.436;5.980;2022-08-04T00:11:14;31.61;30.15;36.22;;
67300;Laerm;57658;51.436;5.980;2022-08-04T00:11:25;31.69;29.99;33.30;;
67300;Laerm;57658;51.436;5.980;2022-08-04T00:11:39;32.07;30.13;42.73;;
67300;Laerm;57658;51.436;5.980;2022-08-04T00:11:53;31.60;30.14;33.60;;
67300;Laerm;57658;51.436;5.980;2022-08-04T00:12:06;31.49;30.13;34.20;;
67300;Laerm;57658;51.436;5.980;2022-08-04T00:12:21;31.64;30.08;33.12;;
67300;Laerm;57658;51.436;5.980;2022-08-04T00:12:35;31.70;30.39;37.20;;
67300;Laerm;57658;51.436;5.980;2022-08-04T00:12:47;31.87;30.28;36.11;;
67300;Laerm;57658;51.436;5.980;2022-08-04T00:12:59;31.70;30.07;35.45;;
67300;Laerm;57658;51.436;5.980;2022-08-04T00:13:11;31.44;30.17;32.89;;
67300;Laerm;57658;51.436;5.980;2022-08-04T00:13:22;31.38;29.85;32.81;;
67300;Laerm;57658;51.436;5.980;2022-08-04T00:13:36;31.73;29.94;33.18;;
67300;Laerm;57658;51.436;5.980;2022-08-04T00:13:55;31.76;30.44;33.39;;
67300;Laerm;57658;51.436;5.980;2022-08-04T00:14:09;43.61;30.53;55.40;;
67300;Laerm;57658;51.436;5.980;2022-08-04T00:14:22;31.57;29.92;34.34;;
67300;Laerm;57658;51.436;5.980;2022-08-04T00:14:34;31.44;29.86;32.90;;
67300;Laerm;57658;51.436;5.980;2022-08-04T00:14:48;31.51;30.29;32.99;;
67300;Laerm;57658;51.436;5.980;2022-08-04T00:14:59;31.45;30.10;36.68;;
67300;Laerm;57658;51.436;5.980;2022-08-04T00:15:10;31.52;29.77;32.82;;
67300;Laerm;57658;51.436;5.980;2022-08-04T00:15:20;31.59;30.43;33.88;;
67300;Laerm;57658;51.436;5.980;2022-08-04T00:15:33;31.54;30.16;33.06;;
67300;Laerm;57658;51.436;5.980;2022-08-04T00:15:43;31.43;30.21;32.73;;
67300;Laerm;57658;51.436;5.980;2022-08-04T00:15:57;31.55;30.18;32.73;;
67300;Laerm;57658;51.436;5.980;2022-08-04T00:16:08;31.81;30.25;33.95;;
67300;Laerm;57658;51.436;5.980;2022-08-04T00:16:19;31.78;30.07;34.44;;
67300;Laerm;57658;51.436;5.980;2022-08-04T00:16:32;31.30;30.00;33.15;;
67300;Laerm;57658;51.436;5.980;2022-08-04T00:16:45;31.40;29.87;33.63;;
67300;Laerm;57658;51.436;5.980;2022-08-04T00:16:56;31.87;29.96;39.18;;
67300;Laerm;57658;51.436;5.980;2022-08-04T00:17:06;31.73;30.34;36.11;;
67300;Laerm;57658;51.436;5.980;2022-08-04T00:17:20;31.75;30.04;38.40;;
67300;Laerm;57658;51.436;5.980;2022-08-04T00:17:38;31.50;29.49;37.71;;
67300;Laerm;57658;51.436;5.980;2022-08-04T00:17:58;32.37;30.27;47.81;;
67300;Laerm;57658;51.436;5.980;2022-08-04T00:18:09;31.75;30.03;38.80;;
67300;Laerm;57658;51.436;5.980;2022-08-04T00:18:28;31.59;30.26;33.77;;
67300;Laerm;57658;51.436;5.980;2022-08-04T00:18:48;31.66;30.15;33.60;;
67300;Laerm;57658;51.436;5.980;2022-08-04T00:19:00;31.65;30.13;35.55;;
67300;Laerm;57658;51.436;5.980;2022-08-04T00:19:29;31.41;29.73;34.91;;
67300;Laerm;57658;51.436;5.980;2022-08-04T00:19:43;31.42;29.86;34.62;;
67300;Laerm;57658;51.436;5.980;2022-08-04T00:19:55;31.27;29.97;32.97;;
67300;Laerm;57658;51.436;5.980;2022-08-04T00:20:08;31.35;30.01;32.72;;
67300;Laerm;57658;51.436;5.980;2022-08-04T00:20:19;32.01;30.01;36.13;;
67300;Laerm;57658;51.436;5.980;2022-08-04T00:20:33;33.32;31.36;38.67;;
67300;Laerm;57658;51.436;5.980;2022-08-04T00:20:46;32.54;30.52;36.56;;
67300;Laerm;57658;51.436;5.980;2022-08-04T00:20:58;33.82;30.85;40.35;;
67300;Laerm;57658;51.436;5.980;2022-08-04T00:21:11;32.40;30.59;36.37;;
67300;Laerm;57658;51.436;5.980;2022-08-04T00:21:22;32.35;30.35;35.12;;
67300;Laerm;57658;51.436;5.980;2022-08-04T00:21:35;33.17;30.94;37.99;;
67300;Laerm;57658;51.436;5.980;2022-08-04T00:21:50;33.07;30.76;38.77;;
67300;Laerm;57658;51.436;5.980;2022-08-04T00:22:03;32.95;31.04;36.51;;
67300;Laerm;57658;51.436;5.980;2022-08-04T00:22:17;32.96;30.80;38.85;;
67300;Laerm;57658;51.436;5.980;2022-08-04T00:22:29;32.50;29.88;36.96;;
67300;Laerm;57658;51.436;5.980;2022-08-04T00:22:40;30.92;29.58;32.84;;
67300;Laerm;57658;51.436;5.980;2022-08-04T00:22:52;31.23;29.95;32.92;;
67300;Laerm;57658;51.436;5.980;2022-08-04T00:23:03;31.32;30.12;32.67;;
67300;Laerm;57658;51.436;5.980;2022-08-04T00:23:14;31.53;30.14;32.90;;
67300;Laerm;57658;51.436;5.980;2022-08-04T00:23:26;31.25;29.90;32.67;;
67300;Laerm;57658;51.436;5.980;2022-08-04T00:23:36;31.12;29.74;32.43;;
67300;Laerm;57658;51.436;5.980;2022-08-04T00:23:47;31.15;29.72;32.95;;
67300;Laerm;57658;51.436;5.980;2022-08-04T00:23:58;31.40;29.98;32.98;;
67300;Laerm;57658;51.436;5.980;2022-08-04T00:24:10;31.31;29.88;36.76;;
67300;Laerm;57658;51.436;5.980;2022-08-04T00:24:21;31.14;29.92;32.44;;
67300;Laerm;57658;51.436;5.980;2022-08-04T00:24:32;31.29;29.83;32.52;;
67300;Laerm;57658;51.436;5.980;2022-08-04T00:24:43;31.25;29.59;32.76;;
67300;Laerm;57658;51.436;5.980;2022-08-04T00:24:54;31.11;29.79;32.16;;
67300;Laerm;57658;51.436;5.980;2022-08-04T00:25:05;31.34;29.80;32.89;;
67300;Laerm;57658;51.436;5.980;2022-08-04T00:25:15;31.20;29.92;32.49;;
67300;Laerm;57658;51.436;5.980;2022-08-04T00:25:25;31.29;29.67;32.78;;
67300;Laerm;57658;51.436;5.980;2022-08-04T00:25:39;31.31;29.95;33.04;;
67300;Laerm;57658;51.436;5.980;2022-08-04T00:25:50;31.44;30.16;32.53;;
67300;Laerm;57658;51.436;5.980;2022-08-04T00:26:01;31.25;30.10;33.09;;
67300;Laerm;57658;51.436;5.980;2022-08-04T00:26:12;31.41;30.08;32.74;;
67300;Laerm;57658;51.436;5.980;2022-08-04T00:26:24;31.36;29.74;32.88;;
67300;Laerm;57658;51.436;5.980;2022-08-04T00:26:35;31.15;29.69;32.86;;
67300;Laerm;57658;51.436;5.980;2022-08-04T00:26:45;31.27;29.98;32.90;;
67300;Laerm;57658;51.436;5.980;2022-08-04T00:26:56;31.28;29.98;33.00;;
67300;Laerm;57658;51.436;5.980;2022-08-04T00:27:07;31.56;29.74;33.98;;
67300;Laerm;57658;51.436;5.980;2022-08-04T00:27:17;31.72;30.38;33.20;;
67300;Laerm;57658;51.436;5.980;2022-08-04T00:27:29;31.53;30.35;32.67;;
67300;Laerm;57658;51.436;5.980;2022-08-04T00:27:39;31.53;30.07;32.77;;
67300;Laerm;57658;51.436;5.980;2022-08-04T00:27:50;31.77;30.59;33.22;;
67300;Laerm;57658;51.436;5.980;2022-08-04T00:28:00;31.41;30.09;33.04;;
67300;Laerm;57658;51.436;5.980;2022-08-04T00:28:11;31.28;30.06;32.74;;
67300;Laerm;57658;51.436;5.980;2022-08-04T00:28:21;31.45;29.91;43.52;;
67300;Laerm;57658;51.436;5.980;2022-08-04T00:28:33;30.95;29.59;32.34;;
67300;Laerm;57658;51.436;5.980;2022-08-04T00:28:46;31.17;29.80;32.51;;
67300;Laerm;57658;51.436;5.980;2022-08-04T00:28:56;31.06;29.72;33.41;;
67300;Laerm;57658;51.436;5.980;2022-08-04T00:29:07;31.04;29.79;32.33;;
67300;Laerm;57658;51.436;5.980;2022-08-04T00:29:17;31.36;29.78;35.33;;
67300;Laerm;57658;51.436;5.980;2022-08-04T00:29:27;31.16;29.59;32.72;;
67300;Laerm;57658;51.436;5.980;2022-08-04T00:29:38;31.54;30.12;41.80;;
67300;Laerm;57658;51.436;5.980;2022-08-04T00:29:48;32.31;30.06;42.25;;
67300;Laerm;57658;51.436;5.980;2022-08-04T00:30:00;31.70;30.40;35.83;;
67300;Laerm;57658;51.436;5.980;2022-08-04T00:30:11;31.38;29.62;33.27;;
67300;Laerm;57658;51.436;5.980;2022-08-04T00:30:21;31.27;29.96;33.65;;
67300;Laerm;57658;51.436;5.980;2022-08-04T00:30:31;31.39;29.79;33.61;;
67300;Laerm;57658;51.436;5.980;2022-08-04T00:30:42;31.45;29.74;33.55;;
67300;Laerm;57658;51.436;5.980;2022-08-04T00:30:53;31.71;30.10;33.04;;
67300;Laerm;57658;51.436;5.980;2022-08-04T00:31:04;31.63;30.06;37.20;;
67300;Laerm;57658;51.436;5.980;2022-08-04T00:31:14;50.35;30.43;66.92;;
67300;Laerm;57658;51.436;5.980;2022-08-04T00:31:25;31.93;30.14;33.71;;
67300;Laerm;57658;51.436;5.980;2022-08-04T00:31:36;31.97;30.04;34.09;;
67300;Laerm;57658;51.436;5.980;2022-08-04T00:31:47;31.69;30.48;33.66;;
67300;Laerm;57658;51.436;5.980;2022-08-04T00:31:57;31.96;30.61;33.50;;
67300;Laerm;57658;51.436;5.980;2022-08-04T00:32:08;31.99;30.29;33.76;;
67300;Laerm;57658;51.436;5.980;2022-08-04T00:32:18;31.88;30.05;33.82;;
67300;Laerm;57658;51.436;5.980;2022-08-04T00:32:28;31.83;30.36;34.00;;
67300;Laerm;57658;51.436;5.980;2022-08-04T00:32:40;31.76;30.00;33.50;;
67300;Laerm;57658;51.436;5.980;2022-08-04T00:32:50;31.70;30.50;32.86;;
67300;Laerm;57658;51.436;5.980;2022-08-04T00:33:01;31.55;30.11;33.04;;
67300;Laerm;57658;51.436;5.980;2022-08-04T00:33:11;31.62;30.41;33.22;;
67300;Laerm;57658;51.436;5.980;2022-08-04T00:33:22;31.58;30.18;33.12;;
67300;Laerm;57658;51.436;5.980;2022-08-04T00:33:33;31.68;30.10;33.06;;
67300;Laerm;57658;51.436;5.980;2022-08-04T00:33:44;31.83;30.17;36.07;;
67300;Laerm;57658;51.436;5.980;2022-08-04T00:33:54;31.79;30.44;33.11;;
67300;Laerm;57658;51.436;5.980;2022-08-04T00:34:05;31.79;30.23;33.42;;
67300;Laerm;57658;51.436;5.980;2022-08-04T00:34:16;31.85;30.40;38.81;;
67300;Laerm;57658;51.436;5.980;2022-08-04T00:34:27;31.59;30.19;33.21;;
67300;Laerm;57658;51.436;5.980;2022-08-04T00:34:38;31.71;30.34;34.18;;
67300;Laerm;57658;51.436;5.980;2022-08-04T00:34:48;31.93;30.41;37.62;;
67300;Laerm;57658;51.436;5.980;2022-08-04T00:34:59;31.84;30.29;33.57;;
67300;Laerm;57658;51.436;5.980;2022-08-04T00:35:09;31.57;30.31;33.15;;
67300;Laerm;57658;51.436;5.980;2022-08-04T00:35:22;31.46;29.70;32.95;;
67300;Laerm;57658;51.436;5.980;2022-08-04T00:35:32;31.56;29.92;33.08;;
67300;Laerm;57658;51.436;5.980;2022-08-04T00:35:43;32.06;30.20;39.79;;
67300;Laerm;57658;51.436;5.980;2022-08-04T00:35:53;36.31;32.76;41.22;;
67300;Laerm;57658;51.436;5.980;2022-08-04T00:36:05;51.80;38.53;59.75;;
67300;Laerm;57658;51.436;5.980;2022-08-04T00:36:15;60.26;49.22;68.57;;
67300;Laerm;57658;51.436;5.980;2022-08-04T00:36:26;45.80;36.79;60.45;;
67300;Laerm;57658;51.436;5.980;2022-08-04T00:36:37;35.08;31.97;38.45;;
67300;Laerm;57658;51.436;5.980;2022-08-04T00:36:48;32.78;31.07;34.69;;
67300;Laerm;57658;51.436;5.980;2022-08-04T00:37:00;32.74;30.33;35.53;;
67300;Laerm;57658;51.436;5.980;2022-08-04T00:37:10;32.61;31.01;34.92;;
67300;Laerm;57658;51.436;5.980;2022-08-04T00:37:20;32.24;30.31;34.05;;
67300;Laerm;57658;51.436;5.980;2022-08-04T00:37:31;32.11;30.38;34.54;;
67300;Laerm;57658;51.436;5.980;2022-08-04T00:37:45;32.00;30.25;33.49;;
67300;Laerm;57658;51.436;5.980;2022-08-04T00:37:55;32.29;30.85;33.95;;
67300;Laerm;57658;51.436;5.980;2022-08-04T00:38:06;33.24;31.37;35.47;;
67300;Laerm;57658;51.436;5.980;2022-08-04T00:38:18;33.62;30.87;37.62;;
67300;Laerm;57658;51.436;5.980;2022-08-04T00:38:28;31.78;30.39;33.50;;
67300;Laerm;57658;51.436;5.980;2022-08-04T00:38:42;31.75;30.08;32.98;;
67300;Laerm;57658;51.436;5.980;2022-08-04T00:38:53;31.83;30.43;33.39;;
67300;Laerm;57658;51.436;5.980;2022-08-04T00:39:04;31.87;29.96;33.87;;
67300;Laerm;57658;51.436;5.980;2022-08-04T00:39:15;31.71;30.10;33.18;;
67300;Laerm;57658;51.436;5.980;2022-08-04T00:39:25;32.45;30.47;35.65;;
67300;Laerm;57658;51.436;5.980;2022-08-04T00:39:36;32.52;30.90;34.85;;
67300;Laerm;57658;51.436;5.980;2022-08-04T00:39:47;32.55;30.60;35.04;;
67300;Laerm;57658;51.436;5.980;2022-08-04T00:39:58;32.64;30.71;35.56;;
67300;Laerm;57658;51.436;5.980;2022-08-04T00:40:34;31.17;29.60;32.75;;
67300;Laerm;57658;51.436;5.980;2022-08-04T00:40:59;31.37;29.72;32.89;;
67300;Laerm;57658;51.436;5.980;2022-08-04T00:41:18;31.09;29.48;32.74;;
67300;Laerm;57658;51.436;5.980;2022-08-04T00:42:17;31.58;30.14;33.99;;
67300;Laerm;57658;51.436;5.980;2022-08-04T00:42:48;31.65;30.21;40.04;;
67300;Laerm;57658;51.436;5.980;2022-08-04T00:43:22;31.39;29.99;33.32;;
67300;Laerm;57658;51.436;5.980;2022-08-04T00:43:48;31.36;29.59;33.22;;
67300;Laerm;57658;51.436;5.980;2022-08-04T00:44:38;31.34;30.00;33.83;;
67300;Laerm;57658;51.436;5.980;2022-08-04T00:45:53;32.00;30.58;33.62;;
67300;Laerm;57658;51.436;5.980;2022-08-04T00:46:55;33.33;31.43;35.63;;
67300;Laerm;57658;51.436;5.980;2022-08-04T00:47:55;31.67;30.15;33.73;;
67300;Laerm;57658;51.436;5.980;2022-08-04T00:48:41;31.35;29.97;33.32;;
67300;Laerm;57658;51.436;5.980;2022-08-04T00:49:09;31.51;29.80;33.31;;
67300;Laerm;57658;51.436;5.980;2022-08-04T00:50:10;32.80;30.19;38.77;;
67300;Laerm;57658;51.436;5.980;2022-08-04T00:50:51;32.01;30.19;37.31;;
67300;Laerm;57658;51.436;5.980;2022-08-04T00:53:05;31.48;30.03;33.16;;
67300;Laerm;57658;51.436;5.980;2022-08-04T00:57:07;31.12;29.66;32.96;;
67300;Laerm;57658;51.436;5.980;2022-08-04T01:00:04;31.23;30.09;32.76;;
67300;Laerm;57658;51.436;5.980;2022-08-04T01:00:17;52.24;29.77;67.81;;
67300;Laerm;57658;51.436;5.980;2022-08-04T01:00:31;31.41;29.95;32.99;;
67300;Laerm;57658;51.436;5.980;2022-08-04T01:00:59;31.50;29.78;36.36;;
67300;Laerm;57658;51.436;5.980;2022-08-04T01:01:35;31.55;29.56;33.78;;
67300;Laerm;57658;51.436;5.980;2022-08-04T01:01:47;31.38;29.63;36.32;;
67300;Laerm;57658;51.436;5.980;2022-08-04T01:02:10;31.29;29.91;33.14;;
67300;Laerm;57658;51.436;5.980;2022-08-04T01:03:17;31.42;29.62;33.09;;
67300;Laerm;57658;51.436;5.980;2022-08-04T01:04:55;31.93;30.07;35.09;;
67300;Laerm;57658;51.436;5.980;2022-08-04T01:06:04;45.79;37.70;51.51;;
67300;Laerm;57658;51.436;5.980;2022-08-04T01:06:33;35.73;32.57;38.84;;
67300;Laerm;57658;51.436;5.980;2022-08-04T01:06:53;33.20;31.48;34.65;;
67300;Laerm;57658;51.436;5.980;2022-08-04T01:08:17;31.41;29.78;33.17;;
67300;Laerm;57658;51.436;5.980;2022-08-04T01:08:24;31.13;29.44;33.30;;
67300;Laerm;57658;51.436;5.980;2022-08-04T01:08:52;31.40;30.00;33.29;;
67300;Laerm;57658;51.436;5.980;2022-08-04T01:09:37;31.11;29.31;32.77;;
67300;Laerm;57658;51.436;5.980;2022-08-04T01:10:08;31.61;29.94;33.15;;
67300;Laerm;57658;51.436;5.980;2022-08-04T01:11:41;31.40;29.57;37.67;;
67300;Laerm;57658;51.436;5.980;2022-08-04T01:13:35;31.56;30.01;37.67;;
67300;Laerm;57658;51.436;5.980;2022-08-04T01:14:50;31.57;29.99;33.74;;
67300;Laerm;57658;51.436;5.980;2022-08-04T01:15:06;31.79;30.31;33.88;;
67300;Laerm;57658;51.436;5.980;2022-08-04T01:16:04;32.63;30.40;36.30;;
67300;Laerm;57658;51.436;5.980;2022-08-04T01:16:16;31.95;30.36;41.61;;
67300;Laerm;57658;51.436;5.980;2022-08-04T01:16:27;31.70;30.38;33.86;;
67300;Laerm;57658;51.436;5.980;2022-08-04T01:16:44;31.62;30.15;34.46;;
67300;Laerm;57658;51.436;5.980;2022-08-04T01:16:59;31.29;29.91;32.71;;
67300;Laerm;57658;51.436;5.980;2022-08-04T01:17:36;31.43;30.06;33.11;;
67300;Laerm;57658;51.436;5.980;2022-08-04T01:18:02;31.64;29.91;34.06;;
67300;Laerm;57658;51.436;5.980;2022-08-04T01:18:20;31.60;29.96;35.81;;
67300;Laerm;57658;51.436;5.980;2022-08-04T01:19:07;31.48;29.68;36.82;;
67300;Laerm;57658;51.436;5.980;2022-08-04T01:19:49;31.90;30.28;38.41;;
67300;Laerm;57658;51.436;5.980;2022-08-04T01:20:04;31.62;29.99;34.77;;
67300;Laerm;57658;51.436;5.980;2022-08-04T01:20:20;31.70;30.16;33.03;;
67300;Laerm;57658;51.436;5.980;2022-08-04T01:20:38;31.58;30.12;33.19;;
67300;Laerm;57658;51.436;5.980;2022-08-04T01:21:05;31.48;29.81;33.18;;
67300;Laerm;57658;51.436;5.980;2022-08-04T01:23:26;32.55;30.32;34.84;;
67300;Laerm;57658;51.436;5.980;2022-08-04T01:24:18;38.74;30.14;48.78;;
67300;Laerm;57658;51.436;5.980;2022-08-04T01:25:09;32.95;29.50;50.69;;
67300;Laerm;57658;51.436;5.980;2022-08-04T01:26:12;31.26;29.76;36.08;;
67300;Laerm;57658;51.436;5.980;2022-08-04T01:28:32;35.47;30.22;40.96;;
67300;Laerm;57658;51.436;5.980;2022-08-04T01:29:14;31.78;29.95;35.82;;
67300;Laerm;57658;51.436;5.980;2022-08-04T01:29:25;32.03;30.53;33.89;;
67300;Laerm;57658;51.436;5.980;2022-08-04T01:29:37;31.94;30.41;33.66;;
67300;Laerm;57658;51.436;5.980;2022-08-04T01:29:49;32.04;30.29;34.03;;
67300;Laerm;57658;51.436;5.980;2022-08-04T01:30:00;31.87;30.27;33.57;;
67300;Laerm;57658;51.436;5.980;2022-08-04T01:30:11;31.91;30.18;33.45;;
67300;Laerm;57658;51.436;5.980;2022-08-04T01:30:21;32.17;30.46;34.03;;
67300;Laerm;57658;51.436;5.980;2022-08-04T01:30:33;32.07;30.38;33.63;;
67300;Laerm;57658;51.436;5.980;2022-08-04T01:30:45;32.06;29.83;34.16;;
67300;Laerm;57658;51.436;5.980;2022-08-04T01:31:01;33.12;30.60;36.91;;
67300;Laerm;57658;51.436;5.980;2022-08-04T01:31:21;32.49;30.49;34.42;;
67300;Laerm;57658;51.436;5.980;2022-08-04T01:32:04;31.75;29.66;33.71;;
67300;Laerm;57658;51.436;5.980;2022-08-04T01:32:30;31.28;29.70;33.43;;
67300;Laerm;57658;51.436;5.980;2022-08-04T01:32:46;31.26;29.64;32.68;;
67300;Laerm;57658;51.436;5.980;2022-08-04T01:33:01;31.56;29.41;33.84;;
67300;Laerm;57658;51.436;5.980;2022-08-04T01:33:13;31.28;29.59;35.09;;
67300;Laerm;57658;51.436;5.980;2022-08-04T01:33:23;31.13;29.42;33.02;;
67300;Laerm;57658;51.436;5.980;2022-08-04T01:33:38;31.27;29.56;35.87;;
67300;Laerm;57658;51.436;5.980;2022-08-04T01:33:50;31.50;29.77;33.39;;
67300;Laerm;57658;51.436;5.980;2022-08-04T01:34:02;31.97;29.84;36.92;;
67300;Laerm;57658;51.436;5.980;2022-08-04T01:34:15;32.04;30.46;33.81;;
67300;Laerm;57658;51.436;5.980;2022-08-04T01:34:27;32.23;30.30;33.88;;
67300;Laerm;57658;51.436;5.980;2022-08-04T01:34:41;32.22;30.61;33.96;;
67300;Laerm;57658;51.436;5.980;2022-08-04T01:35:15;31.73;29.76;33.70;;
67300;Laerm;57658;51.436;5.980;2022-08-04T01:35:28;31.51;29.61;37.06;;
67300;Laerm;57658;51.436;5.980;2022-08-04T01:36:22;32.83;29.92;41.75;;
67300;Laerm;57658;51.436;5.980;2022-08-04T01:36:33;42.77;31.99;53.12;;
67300;Laerm;57658;51.436;5.980;2022-08-04T01:36:56;33.52;30.45;43.88;;
67300;Laerm;57658;51.436;5.980;2022-08-04T01:37:34;31.81;30.04;34.54;;
67300;Laerm;57658;51.436;5.980;2022-08-04T01:38:18;31.60;30.13;33.53;;
67300;Laerm;57658;51.436;5.980;2022-08-04T01:38:33;31.79;29.82;34.36;;
67300;Laerm;57658;51.436;5.980;2022-08-04T01:38:44;32.56;30.40;36.90;;
67300;Laerm;57658;51.436;5.980;2022-08-04T01:38:54;33.27;30.58;37.11;;
67300;Laerm;57658;51.436;5.980;2022-08-04T01:39:05;32.02;29.85;34.03;;
67300;Laerm;57658;51.436;5.980;2022-08-04T01:39:34;31.41;29.44;33.33;;
67300;Laerm;57658;51.436;5.980;2022-08-04T01:40:01;31.07;29.30;34.43;;
67300;Laerm;57658;51.436;5.980;2022-08-04T01:40:13;31.16;29.14;33.49;;
67300;Laerm;57658;51.436;5.980;2022-08-04T01:40:25;31.40;29.66;33.07;;
67300;Laerm;57658;51.436;5.980;2022-08-04T01:40:36;31.15;29.40;32.75;;
67300;Laerm;57658;51.436;5.980;2022-08-04T01:40:49;31.15;29.49;33.04;;
67300;Laerm;57658;51.436;5.980;2022-08-04T01:41:05;31.37;29.47;33.29;;
67300;Laerm;57658;51.436;5.980;2022-08-04T01:41:16;31.26;29.58;33.28;;
67300;Laerm;57658;51.436;5.980;2022-08-04T01:41:28;31.13;29.24;33.41;;
67300;Laerm;57658;51.436;5.980;2022-08-04T01:41:39;31.04;29.09;32.84;;
67300;Laerm;57658;51.436;5.980;2022-08-04T01:41:51;31.07;29.66;32.78;;
67300;Laerm;57658;51.436;5.980;2022-08-04T01:42:01;31.32;29.44;33.48;;
67300;Laerm;57658;51.436;5.980;2022-08-04T01:42:13;31.65;29.70;33.26;;
67300;Laerm;57658;51.436;5.980;2022-08-04T01:42:26;31.92;29.90;33.94;;
67300;Laerm;57658;51.436;5.980;2022-08-04T01:42:37;31.90;30.23;33.61;;
67300;Laerm;57658;51.436;5.980;2022-08-04T01:42:51;31.96;30.37;34.01;;
67300;Laerm;57658;51.436;5.980;2022-08-04T01:43:01;31.60;30.00;33.42;;
67300;Laerm;57658;51.436;5.980;2022-08-04T01:43:13;31.46;29.59;36.78;;
67300;Laerm;57658;51.436;5.980;2022-08-04T01:43:23;31.51;29.58;33.81;;
67300;Laerm;57658;51.436;5.980;2022-08-04T01:43:39;31.55;29.98;33.62;;
67300;Laerm;57658;51.436;5.980;2022-08-04T01:43:49;31.29;29.76;33.50;;
67300;Laerm;57658;51.436;5.980;2022-08-04T01:44:03;31.51;29.11;33.33;;
67300;Laerm;57658;51.436;5.980;2022-08-04T01:44:15;31.44;29.58;33.64;;
67300;Laerm;57658;51.436;5.980;2022-08-04T01:44:26;31.28;29.65;32.72;;
67300;Laerm;57658;51.436;5.980;2022-08-04T01:44:37;31.43;30.04;32.87;;
67300;Laerm;57658;51.436;5.980;2022-08-04T01:44:48;31.52;29.99;32.94;;
67300;Laerm;57658;51.436;5.980;2022-08-04T01:44:59;31.53;29.39;33.52;;
67300;Laerm;57658;51.436;5.980;2022-08-04T01:45:10;31.36;29.64;34.39;;
67300;Laerm;57658;51.436;5.980;2022-08-04T01:45:23;31.31;29.09;34.43;;
67300;Laerm;57658;51.436;5.980;2022-08-04T01:45:33;30.91;29.20;32.57;;
67300;Laerm;57658;51.436;5.980;2022-08-04T01:45:49;30.98;29.39;32.92;;
67300;Laerm;57658;51.436;5.980;2022-08-04T01:46:00;31.16;29.14;33.33;;
67300;Laerm;57658;51.436;5.980;2022-08-04T01:46:15;31.17;29.04;34.75;;
67300;Laerm;57658;51.436;5.980;2022-08-04T01:46:26;31.26;29.38;33.25;;
67300;Laerm;57658;51.436;5.980;2022-08-04T01:46:41;31.21;29.48;33.35;;
67300;Laerm;57658;51.436;5.980;2022-08-04T01:46:51;31.18;29.62;32.76;;
67300;Laerm;57658;51.436;5.980;2022-08-04T01:47:02;31.25;29.73;32.88;;
67300;Laerm;57658;51.436;5.980;2022-08-04T01:47:13;31.06;29.60;32.36;;
67300;Laerm;57658;51.436;5.980;2022-08-04T01:47:24;31.29;29.53;33.25;;
67300;Laerm;57658;51.436;5.980;2022-08-04T01:47:41;31.53;29.67;33.31;;
67300;Laerm;57658;51.436;5.980;2022-08-04T01:47:52;31.42;29.75;33.32;;
67300;Laerm;57658;51.436;5.980;2022-08-04T01:48:03;31.36;29.06;38.94;;
67300;Laerm;57658;51.436;5.980;2022-08-04T01:48:17;31.28;29.44;33.62;;
67300;Laerm;57658;51.436;5.980;2022-08-04T01:48:32;31.90;29.61;40.89;;
67300;Laerm;57658;51.436;5.980;2022-08-04T01:48:44;31.52;29.69;33.25;;
67300;Laerm;57658;51.436;5.980;2022-08-04T01:48:55;31.35;29.44;33.01;;
67300;Laerm;57658;51.436;5.980;2022-08-04T01:49:06;31.58;30.09;33.35;;
67300;Laerm;57658;51.436;5.980;2022-08-04T01:49:16;31.63;30.24;33.31;;
67300;Laerm;57658;51.436;5.980;2022-08-04T01:49:30;31.16;29.95;32.64;;
67300;Laerm;57658;51.436;5.980;2022-08-04T01:49:41;31.02;29.55;32.68;;
67300;Laerm;57658;51.436;5.980;2022-08-04T01:49:53;30.87;29.27;32.45;;
67300;Laerm;57658;51.436;5.980;2022-08-04T01:50:08;31.18;29.52;32.94;;
67300;Laerm;57658;51.436;5.980;2022-08-04T01:50:19;31.49;29.33;34.85;;
67300;Laerm;57658;51.436;5.980;2022-08-04T01:50:32;31.66;29.85;38.16;;
67300;Laerm;57658;51.436;5.980;2022-08-04T01:50:43;31.25;29.84;33.22;;
67300;Laerm;57658;51.436;5.980;2022-08-04T01:50:57;31.73;29.62;33.10;;
67300;Laerm;57658;51.436;5.980;2022-08-04T01:51:08;31.69;29.73;33.63;;
67300;Laerm;57658;51.436;5.980;2022-08-04T01:51:19;31.69;29.59;33.40;;
67300;Laerm;57658;51.436;5.980;2022-08-04T01:51:31;31.64;29.74;38.70;;
67300;Laerm;57658;51.436;5.980;2022-08-04T01:51:45;32.19;29.87;35.36;;
67300;Laerm;57658;51.436;5.980;2022-08-04T01:51:58;31.99;30.02;33.77;;
67300;Laerm;57658;51.436;5.980;2022-08-04T01:52:08;32.59;30.08;34.54;;
67300;Laerm;57658;51.436;5.980;2022-08-04T01:52:19;32.01;30.49;36.00;;
67300;Laerm;57658;51.436;5.980;2022-08-04T01:52:30;32.09;30.45;33.60;;
67300;Laerm;57658;51.436;5.980;2022-08-04T01:52:41;32.45;30.90;34.02;;
67300;Laerm;57658;51.436;5.980;2022-08-04T01:52:52;31.86;30.11;33.66;;
67300;Laerm;57658;51.436;5.980;2022-08-04T01:53:03;32.78;30.95;35.41;;